Time;durP1;ratioP1;P1;durP2;ratioP2;P2;SDS_P1;SDS_P2;PMS_P1;PMS_P2;Temp;Humidity;BMP_temperature;BMP_pressure;BME280_temperature;BME280_humidity;BME280_pressure;Samples;Min_cycle;Max_cycle;Signal;HPM_P1;HPM_P2
2021/05/26 00:01:00;;;;;;;7.50;6.87;;;;;;;16.63;100.00;93782.03;5015684;28;20196;-96
2021/05/26 00:03:27;;;;;;;7.53;6.90;;;;;;;16.50;100.00;93787.78;5016009;28;20690;-96
2021/05/26 00:05:54;;;;;;;6.70;6.30;;;;;;;16.53;100.00;93779.31;5016061;28;20627;-96
2021/05/26 00:08:28;;;;;;;6.73;6.33;;;;;;;16.63;100.00;93750.22;5015415;28;20206;-96
2021/05/26 00:10:56;;;;;;;6.90;6.40;;;;;;;16.77;100.00;93767.28;5022033;28;20218;-96
2021/05/26 00:13:24;;;;;;;5.87;5.37;;;;;;;16.59;100.00;93804.78;5026352;28;20203;-96
2021/05/26 00:15:51;;;;;;;6.93;6.33;;;;;;;16.44;100.00;93834.66;5029380;28;20202;-96
2021/05/26 00:18:19;;;;;;;7.00;6.50;;;;;;;16.46;100.00;93821.97;5025190;28;20226;-96
2021/05/26 00:20:47;;;;;;;7.07;6.57;;;;;;;16.46;100.00;93826.47;5015211;28;20668;-96
2021/05/26 00:23:14;;;;;;;7.07;6.57;;;;;;;16.36;100.00;93808.63;5018002;28;20206;-96
2021/05/26 00:25:41;;;;;;;7.30;6.80;;;;;;;16.57;100.00;93788.34;5019746;28;20684;-96
2021/05/26 00:28:08;;;;;;;6.90;6.40;;;;;;;16.46;100.00;93815.88;5019444;28;20210;-96
2021/05/26 00:30:43;;;;;;;7.33;6.77;;;;;;;16.41;100.00;93828.00;5027649;28;20203;-96
2021/05/26 00:33:10;;;;;;;7.47;6.73;;;;;;;16.32;100.00;93834.84;5023728;28;20234;-96
2021/05/26 00:35:38;;;;;;;7.50;6.90;;;;;;;16.26;100.00;93856.25;5021250;28;20575;-96
2021/05/26 00:38:05;;;;;;;7.70;7.10;;;;;;;16.25;100.00;93850.16;5019045;28;20230;-96
2021/05/26 00:40:32;;;;;;;6.33;5.93;;;;;;;16.29;100.00;93830.06;5017537;28;20195;-96
2021/05/26 00:42:59;;;;;;;5.80;5.40;;;;;;;16.27;100.00;93839.31;5014700;28;20249;-96
2021/05/26 00:45:26;;;;;;;7.73;5.63;;;;;;;16.34;100.00;93853.13;5014872;28;20225;-96
2021/05/26 00:47:53;;;;;;;6.37;5.83;;;;;;;16.40;100.00;93838.88;5014968;28;20265;-96
2021/05/26 00:50:22;;;;;;;5.87;5.40;;;;;;;16.36;100.00;93862.44;5014403;28;20261;-96
2021/05/26 00:52:52;;;;;;;6.13;5.53;;;;;;;16.54;100.00;93876.38;5014406;28;20191;-96
2021/05/26 00:55:20;;;;;;;5.93;5.53;;;;;;;16.19;100.00;93882.97;5014477;28;20256;-96
2021/05/26 00:57:48;;;;;;;6.83;6.37;;;;;;;16.07;100.00;93896.38;5014034;28;20229;-96
2021/05/26 01:00:18;;;;;;;6.40;6.00;;;;;;;15.97;100.00;93875.09;5016908;28;20615;-96
2021/05/26 01:02:45;;;;;;;7.03;6.47;;;;;;;15.86;100.00;93850.34;5016255;28;20202;-96
2021/05/26 01:05:14;;;;;;;7.47;6.77;;;;;;;15.74;100.00;93798.59;5014691;28;20195;-96
2021/05/26 01:07:41;;;;;;;8.50;7.83;;;;;;;15.65;100.00;93764.56;5014372;28;20214;-96
2021/05/26 01:10:11;;;;;;;7.23;6.73;;;;;;;15.95;100.00;93722.75;5014519;28;20210;-96
2021/05/26 01:12:39;;;;;;;7.10;6.70;;;;;;;15.91;100.00;93680.88;5014247;28;20288;-96
2021/05/26 01:15:08;;;;;;;8.37;7.67;;;;;;;15.97;100.00;93665.00;5014604;28;20669;-96
2021/05/26 01:17:35;;;;;;;7.77;7.27;;;;;;;16.11;100.00;93652.91;5014034;28;20230;-96
2021/05/26 01:20:03;;;;;;;7.27;6.73;;;;;;;16.30;100.00;93629.41;5014123;28;20198;-96
2021/05/26 01:22:31;;;;;;;7.37;6.67;;;;;;;16.27;100.00;93624.63;5014410;28;20222;-96
2021/05/26 01:24:58;;;;;;;9.80;6.70;;;;;;;16.31;100.00;93653.00;5013917;28;20242;-96
2021/05/26 01:27:25;;;;;;;6.73;6.23;;;;;;;16.26;100.00;93703.34;5014017;28;20239;-96
2021/05/26 01:29:55;;;;;;;7.77;6.97;;;;;;;16.19;100.00;93747.81;5015663;28;20607;-96
2021/05/26 01:32:22;;;;;;;8.23;7.53;;;;;;;16.02;100.00;93797.50;5016544;28;20200;-96
2021/05/26 01:34:49;;;;;;;8.03;7.33;;;;;;;16.01;100.00;93807.31;5016057;28;20289;-96
2021/05/26 01:37:16;;;;;;;8.00;7.40;;;;;;;16.01;100.00;93804.66;5016681;28;20223;-96
2021/05/26 01:39:48;;;;;;;7.57;6.97;;;;;;;15.82;100.00;93817.44;5029626;28;20205;-96
2021/05/26 01:42:28;;;;;;;7.30;6.80;;;;;;;15.82;100.00;93806.06;5029480;28;20193;-96
2021/05/26 01:44:55;;;;;;;7.40;6.90;;;;;;;15.89;100.00;93780.16;5026602;28;20228;-96
2021/05/26 01:47:22;;;;;;;7.57;7.00;;;;;;;15.93;100.00;93797.16;5027632;28;20205;-96
2021/05/26 01:49:49;;;;;;;6.67;6.17;;;;;;;15.90;100.00;93787.88;5027559;28;20210;-96
2021/05/26 01:52:16;;;;;;;6.63;6.23;;;;;;;15.91;100.00;93760.34;5028153;28;20193;-96
2021/05/26 01:54:44;;;;;;;6.40;5.90;;;;;;;16.03;100.00;93731.00;5026369;28;20298;-96
2021/05/26 01:57:13;;;;;;;6.23;5.83;;;;;;;15.92;100.00;93740.72;5014599;28;20225;-96
2021/05/26 01:59:40;;;;;;;6.97;6.43;;;;;;;16.03;100.00;93748.75;5014395;28;20230;-96
2021/05/26 02:02:07;;;;;;;6.53;6.10;;;;;;;16.13;100.00;93743.53;5014990;28;20231;-96
2021/05/26 02:04:34;;;;;;;6.67;6.27;;;;;;;16.21;100.00;93755.50;5014736;28;20638;-96
2021/05/26 02:07:04;;;;;;;7.40;6.90;;;;;;;15.95;100.00;93812.81;5014656;28;20256;-96
2021/05/26 02:09:31;;;;;;;7.77;6.23;;;;;;;15.72;100.00;93862.38;5014155;28;20202;-96
2021/05/26 02:14:43;;;;;;;7.13;6.63;;;;;;;15.56;100.00;93895.00;5014777;28;20181;-96
2021/05/26 02:17:10;;;;;;;7.20;6.43;;;;;;;15.61;100.00;93850.06;5015367;28;20266;-96
2021/05/26 02:19:37;;;;;;;7.27;6.77;;;;;;;15.37;100.00;93837.06;5017955;28;20197;-96
2021/05/26 02:22:04;;;;;;;6.10;5.70;;;;;;;15.27;100.00;93846.75;5032876;28;20198;-96
2021/05/26 02:24:31;;;;;;;6.83;6.33;;;;;;;15.23;100.00;93857.03;5024938;28;20209;-96
2021/05/26 02:26:59;;;;;;;7.07;6.47;;;;;;;15.38;100.00;93829.97;5025404;28;20278;-96
2021/05/26 02:29:26;;;;;;;7.53;6.93;;;;;;;15.35;100.00;93804.78;5024845;28;20199;-96
2021/05/26 02:31:53;;;;;;;7.97;7.33;;;;;;;15.53;100.00;93851.28;5023644;28;20194;-96
2021/05/26 02:34:20;;;;;;;7.20;6.50;;;;;;;15.70;100.00;93726.78;5017102;28;20238;-96
2021/05/26 02:36:47;;;;;;;7.07;6.57;;;;;;;15.62;100.00;93690.97;5014547;28;20694;-95
2021/05/26 02:39:14;;;;;;;10.00;7.30;;;;;;;15.77;100.00;93698.25;5012982;28;20191;-95
2021/05/26 02:41:41;;;;;;;7.33;6.83;;;;;;;15.70;100.00;93687.06;5013430;28;20250;-93
2021/05/26 02:44:09;;;;;;;7.87;6.80;;;;;;;15.58;100.00;93705.72;5012824;28;20206;-94
2021/05/26 02:46:36;;;;;;;6.40;5.80;;;;;;;15.51;100.00;93752.00;5012792;28;20198;-95
2021/05/26 02:49:05;;;;;;;6.90;6.20;;;;;;;15.50;100.00;93796.19;5012753;28;20272;-94
2021/05/26 02:51:32;;;;;;;7.33;6.73;;;;;;;15.30;100.00;93840.97;5012848;28;20210;-94
2021/05/26 02:53:59;;;;;;;7.13;6.43;;;;;;;15.35;100.00;93856.91;5012891;28;20202;-95
2021/05/26 02:56:26;;;;;;;6.73;6.13;;;;;;;15.20;100.00;93853.00;5013278;28;20198;-95
2021/05/26 02:58:53;;;;;;;6.87;6.30;;;;;;;15.26;100.00;93811.56;5013031;28;20708;-95
2021/05/26 03:01:21;;;;;;;6.90;6.40;;;;;;;15.29;100.00;93784.59;5013169;28;20225;-95
2021/05/26 03:03:48;;;;;;;7.20;6.70;;;;;;;15.40;100.00;93806.69;5014369;28;20198;-95
2021/05/26 03:06:15;;;;;;;8.17;7.20;;;;;;;15.52;100.00;93804.69;5016786;28;20789;-95
2021/05/26 03:08:42;;;;;;;7.40;6.80;;;;;;;15.61;100.00;93805.84;5016755;28;20198;-95
2021/05/26 03:11:10;;;;;;;7.20;6.60;;;;;;;15.65;100.00;93816.72;5016328;28;20210;-94
2021/05/26 03:13:36;;;;;;;6.83;6.43;;;;;;;15.57;100.00;93855.03;5016372;28;20190;-95
2021/05/26 03:16:04;;;;;;;6.17;5.73;;;;;;;15.49;100.00;93903.13;5016372;28;20202;-94
2021/05/26 03:18:32;;;;;;;7.73;5.70;;;;;;;15.44;100.00;93935.63;5016248;28;20229;-95
2021/05/26 03:20:59;;;;;;;6.90;6.20;;;;;;;15.55;100.00;93941.88;5016387;28;20200;-94
2021/05/26 03:23:26;;;;;;;7.10;5.53;;;;;;;15.61;100.00;93948.00;5006681;28;20218;-96
2021/05/26 03:28:37;;;;;;;7.87;7.13;;;;;;;15.45;100.00;94006.06;5013894;28;20264;-96
2021/05/26 03:31:05;;;;;;;7.70;6.97;;;;;;;15.61;100.00;94051.28;4999823;28;20233;-95
2021/05/26 03:34:21;;;;;;;7.50;7.00;;;;;;;15.65;100.00;94026.69;5009958;28;20202;-94
2021/05/26 03:37:06;;;;;;;7.30;6.70;;;;;;;15.77;100.00;94028.50;4996309;28;20281;-95
2021/05/26 03:39:33;;;;;;;7.73;7.23;;;;;;;15.72;100.00;94068.94;4996362;28;20225;-96
2021/05/26 03:42:03;;;;;;;8.20;7.50;;;;;;;15.72;100.00;94098.06;4996301;28;20202;-95
2021/05/26 03:44:31;;;;;;;8.20;7.70;;;;;;;15.59;100.00;94146.06;4995332;28;20284;-95
2021/05/26 03:46:58;;;;;;;8.83;8.13;;;;;;;15.16;100.00;94224.19;4996137;28;20206;-94
2021/05/26 03:49:25;;;;;;;8.60;8.00;;;;;;;15.08;100.00;94285.44;4997005;28;20625;-94
2021/05/26 03:51:53;;;;;;;9.50;8.53;;;;;;;15.40;100.00;94299.81;4996199;28;20206;-94
2021/05/26 03:54:20;;;;;;;8.93;8.23;;;;;;;15.61;100.00;94200.34;4996126;28;20203;-93
2021/05/26 03:56:47;;;;;;;9.47;8.77;;;;;;;15.58;100.00;94142.56;4995880;28;20203;-95
2021/05/26 03:59:15;;;;;;;8.43;7.73;;;;;;;15.54;100.00;94160.00;4995627;28;20239;-95
2021/05/26 04:01:42;;;;;;;8.07;7.50;;;;;;;15.70;100.00;94150.47;4995904;28;20206;-96
2021/05/26 04:04:09;;;;;;;7.90;7.30;;;;;;;15.64;100.00;94152.22;4996219;28;20264;-96
2021/05/26 04:06:36;;;;;;;7.97;7.37;;;;;;;15.80;100.00;94171.81;4996260;28;20211;-95
2021/05/26 04:09:05;;;;;;;7.57;6.87;;;;;;;15.91;100.00;94188.66;4995932;28;20685;-95
2021/05/26 04:11:32;;;;;;;8.63;7.93;;;;;;;15.83;100.00;94223.50;4994881;28;20205;-96
2021/05/26 04:13:59;;;;;;;6.93;6.47;;;;;;;15.80;100.00;94259.22;4995282;28;20201;-95
2021/05/26 04:16:27;;;;;;;7.07;6.57;;;;;;;15.63;100.00;94301.56;4995635;28;20207;-96
2021/05/26 04:18:54;;;;;;;7.43;6.80;;;;;;;15.84;100.00;94341.66;4995581;28;20225;-96
2021/05/26 04:21:21;;;;;;;7.43;6.90;;;;;;;16.01;100.00;94421.19;4995484;28;20206;-94
2021/05/26 04:23:48;;;;;;;8.07;7.57;;;;;;;16.03;100.00;94449.03;4995543;28;20564;-94
2021/05/26 04:26:16;;;;;;;11.47;10.73;;;;;;;16.14;100.00;94758.31;4995501;28;20201;-94
2021/05/26 04:28:45;;;;;;;11.10;10.30;;;;;;;16.12;100.00;95212.81;4995129;28;20207;-94
2021/05/26 04:31:13;;;;;;;9.77;9.07;;;;;;;16.12;100.00;96021.34;4995506;28;20210;-94
2021/05/26 04:33:41;;;;;;;8.03;7.33;;;;;;;16.09;100.00;96236.47;4995444;28;20208;-93
2021/05/26 04:36:09;;;;;;;7.67;7.00;;;;;;;16.23;100.00;96338.97;4995473;28;20203;-95
2021/05/26 04:38:36;;;;;;;6.80;6.17;;;;;;;16.19;100.00;96335.06;4995463;28;20731;-96
2021/05/26 04:41:03;;;;;;;6.63;6.03;;;;;;;16.24;100.00;96310.63;4995238;28;20623;-95
2021/05/26 04:43:31;;;;;;;7.30;6.70;;;;;;;16.22;100.00;96341.84;4995226;28;20207;-95
2021/05/26 04:46:00;;;;;;;7.63;7.03;;;;;;;16.37;100.00;96399.06;4995113;28;20230;-95
2021/05/26 04:48:27;;;;;;;6.93;6.43;;;;;;;16.25;100.00;96394.50;4995062;28;20231;-96
2021/05/26 04:50:54;;;;;;;6.70;6.20;;;;;;;16.27;100.00;96483.44;4995186;28;20286;-95
2021/05/26 04:53:21;;;;;;;7.67;6.43;;;;;;;16.20;100.00;96444.63;4995043;28;20210;-96
2021/05/26 04:55:52;;;;;;;8.17;6.53;;;;;;;16.33;100.00;96472.06;4995724;28;20216;-96
2021/05/26 04:58:19;;;;;;;6.73;6.17;;;;;;;16.49;100.00;96504.69;4994525;28;20263;-96
2021/05/26 05:00:47;;;;;;;7.13;6.53;;;;;;;16.59;100.00;96558.22;4994833;28;20203;-96
2021/05/26 05:03:14;;;;;;;8.57;7.97;;;;;;;16.82;100.00;96635.06;4995036;28;20203;-95
2021/05/26 05:05:41;;;;;;;8.50;7.80;;;;;;;16.87;100.00;96683.13;4994941;28;20199;-94
2021/05/26 05:08:09;;;;;;;9.50;8.13;;;;;;;16.97;100.00;96722.63;4994625;28;20204;-95
2021/05/26 05:10:36;;;;;;;8.00;7.40;;;;;;;17.15;100.00;96741.63;4994870;28;20216;-96
2021/05/26 05:13:03;;;;;;;8.63;7.83;;;;;;;17.24;100.00;96779.50;4994607;28;20200;-95
2021/05/26 05:15:31;;;;;;;8.20;7.60;;;;;;;17.19;100.00;96748.22;4995423;28;20667;-95
2021/05/26 05:17:59;;;;;;;9.37;8.67;;;;;;;17.18;100.00;96738.59;4994278;28;20290;-95
2021/05/26 05:20:26;;;;;;;8.40;7.47;;;;;;;17.35;100.00;96843.63;4995941;28;20203;-95
2021/05/26 05:22:55;;;;;;;7.97;7.27;;;;;;;17.45;100.00;96822.03;4994701;28;20203;-96
2021/05/26 05:25:23;;;;;;;8.97;8.07;;;;;;;17.62;100.00;96865.16;4994881;28;20226;-96
2021/05/26 05:27:50;;;;;;;7.33;6.83;;;;;;;17.82;100.00;96946.00;4994751;28;20200;-96
2021/05/26 05:30:18;;;;;;;7.43;6.87;;;;;;;18.06;100.00;96973.25;4996693;28;20669;-96
2021/05/26 05:32:45;;;;;;;6.77;6.27;;;;;;;18.07;100.00;96937.66;4997338;28;20227;-96
2021/05/26 05:35:14;;;;;;;6.77;6.17;;;;;;;17.95;100.00;96896.63;4997694;28;20263;-96
2021/05/26 05:37:41;;;;;;;6.43;5.87;;;;;;;18.15;100.00;96939.38;5084801;22;20244;-96
2021/05/26 05:40:09;;;;;;;6.40;5.90;;;;;;;18.28;100.00;96928.84;5041878;28;20191;-96
2021/05/26 05:42:39;;;;;;;6.77;6.27;;;;;;;18.61;100.00;96894.53;5042775;28;20195;-96
2021/05/26 05:45:07;;;;;;;6.40;5.90;;;;;;;18.80;100.00;96767.88;5047729;28;20198;-95
2021/05/26 05:47:34;;;;;;;7.13;6.43;;;;;;;18.93;100.00;96664.06;5194784;22;20238;-96
2021/05/26 05:50:01;;;;;;;6.23;5.70;;;;;;;19.01;100.00;96465.94;5033116;28;20660;-96
2021/05/26 05:52:29;;;;;;;6.33;5.93;;;;;;;19.11;100.00;96295.03;5033898;28;20205;-96
2021/05/26 05:54:56;;;;;;;6.50;5.90;;;;;;;19.21;100.00;96216.28;5033836;28;20576;-96
2021/05/26 05:57:23;;;;;;;6.83;5.97;;;;;;;19.35;100.00;96033.13;5035318;28;20284;-95
2021/05/26 05:59:50;;;;;;;5.80;5.33;;;;;;;19.52;100.00;95988.06;5040271;28;20210;-93
2021/05/26 06:02:17;;;;;;;6.03;5.43;;;;;;;19.65;100.00;95905.31;5034997;28;20206;-93
2021/05/26 06:04:44;;;;;;;6.03;4.70;;;;;;;19.66;100.00;95842.94;5033694;28;20207;-95
2021/05/26 06:07:10;;;;;;;5.13;4.63;;;;;;;19.70;100.00;95828.13;5033186;28;20199;-94
2021/05/26 06:09:38;;;;;;;7.40;4.60;;;;;;;19.85;100.00;95833.06;5032851;28;20198;-92
2021/05/26 06:12:06;;;;;;;6.00;5.00;;;;;;;19.60;100.00;95867.81;5033238;28;20194;-94
2021/05/26 06:14:33;;;;;;;5.17;4.67;;;;;;;19.63;100.00;95931.38;5032926;28;20202;-91
2021/05/26 06:17:00;;;;;;;5.10;4.60;;;;;;;19.85;100.00;95909.59;5032880;28;20209;-90
2021/05/26 06:19:27;;;;;;;4.77;4.37;;;;;;;19.99;100.00;95848.88;5033071;28;20210;-91
2021/05/26 06:21:54;;;;;;;5.10;4.70;;;;;;;20.14;100.00;95774.56;5033061;28;20272;-92
2021/05/26 06:24:21;;;;;;;5.63;5.00;;;;;;;19.99;100.00;95824.88;5032732;28;20671;-92
2021/05/26 06:26:49;;;;;;;4.87;4.47;;;;;;;20.09;100.00;95881.97;5032962;28;20203;-93
2021/05/26 06:29:16;;;;;;;5.53;5.00;;;;;;;20.21;100.00;95852.63;5033115;28;20201;-93
2021/05/26 06:31:43;;;;;;;5.63;4.83;;;;;;;20.65;100.00;95839.84;5032871;28;20195;-93
2021/05/26 06:34:09;;;;;;;4.50;4.20;;;;;;;20.85;100.00;95818.94;5032528;28;20206;-90
2021/05/26 06:36:36;;;;;;;5.33;4.77;;;;;;;21.08;100.00;95811.91;5032732;28;20195;-91
2021/05/26 06:39:05;;;;;;;5.30;4.47;;;;;;;21.43;100.00;95790.44;5035937;28;20705;-91
2021/05/26 06:41:32;;;;;;;5.77;5.17;;;;;;;21.21;100.00;95784.13;5036870;28;20674;-89
2021/05/26 06:44:00;;;;;;;9.20;8.30;;;;;;;21.69;100.00;95790.94;5036553;28;20199;-92
2021/05/26 06:46:27;;;;;;;5.70;5.20;;;;;;;21.74;100.00;95765.06;5037224;28;20199;-93
2021/05/26 06:48:54;;;;;;;3.87;3.57;;;;;;;21.82;100.00;95786.09;5036290;28;20229;-91
2021/05/26 06:51:21;;;;;;;4.13;3.23;;;;;;;21.91;100.00;95775.81;5036990;28;20659;-93
2021/05/26 06:53:48;;;;;;;3.33;2.47;;;;;;;22.23;100.00;95804.72;5036527;28;20195;-90
2021/05/26 06:56:15;;;;;;;2.63;2.43;;;;;;;22.31;100.00;95805.13;5036964;28;20198;-93
2021/05/26 06:58:42;;;;;;;4.90;2.80;;;;;;;22.46;100.00;95790.34;5036744;28;20579;-91
2021/05/26 07:01:10;;;;;;;2.80;2.60;;;;;;;22.22;100.00;95819.16;5036381;28;20195;-89
2021/05/26 07:03:37;;;;;;;2.97;2.77;;;;;;;22.60;100.00;95833.69;5036565;28;20588;-89
2021/05/26 07:06:04;;;;;;;3.30;3.00;;;;;;;22.70;100.00;95812.41;5036332;28;20194;-94
2021/05/26 07:08:32;;;;;;;4.83;4.30;;;;;;;22.88;100.00;95795.22;5036328;28;20201;-91
2021/05/26 07:10:59;;;;;;;55.23;49.50;;;;;;;22.89;100.00;95808.38;5036146;28;20282;-94
2021/05/26 07:13:26;;;;;;;17.40;15.80;;;;;;;22.90;100.00;95828.78;5036283;28;20662;-91
2021/05/26 07:15:53;;;;;;;11.00;10.20;;;;;;;23.08;100.00;95816.16;5036348;28;20570;-92
2021/05/26 07:18:21;;;;;;;4.53;4.23;;;;;;;23.14;100.00;95815.16;5035825;28;20772;-93
2021/05/26 07:20:48;;;;;;;6.83;6.23;;;;;;;23.28;100.00;95811.06;5036192;28;20203;-93
2021/05/26 07:23:17;;;;;;;4.73;4.37;;;;;;;23.47;100.00;95798.94;5036142;28;20209;-94
2021/05/26 07:25:44;;;;;;;10.63;8.43;;;;;;;23.69;100.00;95777.50;5036322;28;20583;-90
2021/05/26 07:28:12;;;;;;;24.17;22.07;;;;;;;23.74;100.00;95814.28;5035695;28;20194;-92
2021/05/26 07:30:39;;;;;;;7.93;7.23;;;;;;;23.89;100.00;95773.38;5035997;28;20201;-92
2021/05/26 07:33:07;;;;;;;3.23;2.90;;;;;;;23.65;100.00;95778.19;5035649;28;20206;-92
2021/05/26 07:35:35;;;;;;;3.43;3.13;;;;;;;23.64;100.00;95781.94;5035901;28;20261;-93
2021/05/26 07:38:03;;;;;;;4.07;2.90;;;;;;;23.62;100.00;95784.91;5035506;28;20284;-92
2021/05/26 07:40:30;;;;;;;9.90;7.43;;;;;;;24.02;100.00;95805.16;5035532;28;20199;-91
2021/05/26 07:42:57;;;;;;;3.13;2.90;;;;;;;24.34;100.00;95775.63;5035428;28;20194;-94
2021/05/26 07:45:24;;;;;;;17.77;5.20;;;;;;;24.19;100.00;95733.34;5035769;28;20636;-93
2021/05/26 07:47:51;;;;;;;5.20;4.70;;;;;;;23.93;100.00;95748.47;5035675;28;20222;-89
2021/05/26 07:50:18;;;;;;;18.13;5.90;;;;;;;24.17;100.00;95766.88;5034601;28;20199;-92
2021/05/26 07:52:46;;;;;;;3.53;2.33;;;;;;;24.01;100.00;95751.75;5035496;28;20194;-91
2021/05/26 07:55:13;;;;;;;3.57;2.90;;;;;;;24.13;100.00;95752.38;5035350;28;20229;-91
2021/05/26 07:57:40;;;;;;;3.63;2.70;;;;;;;24.11;100.00;95747.25;5035311;28;20225;-91
2021/05/26 08:00:07;;;;;;;2.90;2.70;;;;;;;;;;5035079;28;20249;-90
2021/05/26 08:02:35;;;;;;;5.57;3.73;;;;;;;23.35;100.00;95766.09;5034987;28;20191;-93
2021/05/26 08:05:01;;;;;;;3.20;2.80;;;;;;;23.31;100.00;95772.19;5035364;28;20279;-89
2021/05/26 08:07:28;;;;;;;5.60;2.90;;;;;;;23.20;100.00;95766.72;5035338;28;20562;-89
2021/05/26 08:09:56;;;;;;;3.70;3.07;;;;;;;22.98;100.00;95777.44;5034949;28;20309;-91
2021/05/26 08:12:23;;;;;;;5.27;3.03;;;;;;;23.42;100.00;95806.94;5035682;28;20670;-91
2021/05/26 08:14:50;;;;;;;4.60;3.10;;;;;;;23.85;100.00;95765.00;5035330;28;20629;-89
2021/05/26 08:17:17;;;;;;;7.90;5.03;;;;;;;24.02;100.00;95759.53;5036282;28;20194;-93
2021/05/26 08:19:44;;;;;;;6.03;4.47;;;;;;;24.06;100.00;95741.84;5034897;28;20202;-90
2021/05/26 08:22:11;;;;;;;4.47;3.43;;;;;;;24.06;100.00;95722.25;5034843;28;20199;-89
2021/05/26 08:24:38;;;;;;;3.27;3.00;;;;;;;24.13;100.00;95720.94;5034637;28;20687;-94
2021/05/26 08:27:06;;;;;;;2.93;2.70;;;;;;;24.35;100.00;95731.59;5034785;28;20209;-92
2021/05/26 08:29:34;;;;;;;3.43;3.13;;;;;;;24.34;100.00;95745.25;5034586;28;20217;-92
2021/05/26 08:32:01;;;;;;;3.23;3.03;;;;;;;23.86;100.00;95720.19;5034587;28;20281;-92
2021/05/26 08:34:28;;;;;;;3.43;3.20;;;;;;;23.91;100.00;95731.78;5034450;28;20191;-88
2021/05/26 08:36:57;;;;;;;4.13;2.93;;;;;;;24.06;100.00;95714.19;5034487;28;20199;-90
2021/05/26 08:39:24;;;;;;;2.97;2.77;;;;;;;23.95;100.00;95718.66;5034480;28;20257;-88
2021/05/26 08:41:52;;;;;;;4.30;3.63;;;;;;;23.84;100.00;95736.56;5034623;28;20195;-91
2021/05/26 08:44:21;;;;;;;6.60;4.33;;;;;;;24.14;100.00;95727.97;5034591;28;20199;-91
2021/05/26 08:46:52;;;;;;;3.43;3.13;;;;;;;24.54;100.00;95725.81;5034053;28;20202;-91
2021/05/26 08:49:20;;;;;;;6.63;3.90;;;;;;;24.45;100.00;95704.00;5034492;28;20636;-90
2021/05/26 08:51:47;;;;;;;5.70;4.20;;;;;;;24.34;100.00;95708.47;5034642;28;20194;-91
2021/05/26 08:54:15;;;;;;;5.87;3.90;;;;;;;24.36;100.00;95719.78;5033947;28;20745;-90
2021/05/26 08:56:44;;;;;;;3.60;3.30;;;;;;;24.54;100.00;95715.88;5034216;28;20746;-90
2021/05/26 08:59:14;;;;;;;7.53;3.73;;;;;;;24.71;100.00;95723.78;5034248;28;20595;-93
2021/05/26 09:01:49;;;;;;;3.80;3.50;;;;;;;24.99;100.00;95678.72;5034818;28;20273;-90
2021/05/26 09:04:30;;;;;;;3.40;3.10;;;;;;;25.04;100.00;95654.53;5034619;28;20619;-91
2021/05/26 09:07:11;;;;;;;15.30;13.77;;;;;;;25.35;100.00;95707.34;5034081;28;20252;-91
2021/05/26 09:09:54;;;;;;;9.07;6.37;;;;;;;25.80;100.00;95676.22;5034139;28;20213;-89
2021/05/26 09:12:33;;;;;;;12.07;9.93;;;;;;;25.97;100.00;95659.78;5033833;28;20195;-92
2021/05/26 09:15:06;;;;;;;10.57;9.10;;;;;;;26.13;100.00;95681.34;5033717;28;20277;-90
2021/05/26 09:17:35;;;;;;;11.50;8.07;;;;;;;26.44;100.00;95664.03;5033618;28;20270;-92
2021/05/26 09:20:17;;;;;;;8.02;7.22;;;;;;;26.50;100.00;95622.56;5033846;28;20655;-92
2021/05/26 09:23:08;;;;;;;8.85;7.47;;;;;;;26.62;100.00;95621.41;5033899;28;20202;-93
2021/05/26 09:25:37;;;;;;;8.88;7.93;;;;;;;26.72;100.00;95608.69;5033608;28;20198;-92
2021/05/26 09:28:31;;;;;;;8.40;7.65;;;;;;;26.69;100.00;95582.31;5033683;28;20198;-92
2021/05/26 09:31:01;;;;;;;8.73;7.93;;;;;;;26.94;100.00;95580.53;5033675;28;20195;-88
2021/05/26 09:33:40;;;;;;;9.38;8.48;;;;;;;26.82;100.00;95547.75;5033485;28;20198;-89
2021/05/26 09:36:15;;;;;;;10.80;8.18;;;;;;;26.97;100.00;95577.28;5033591;28;20219;-94
2021/05/26 09:38:43;;;;;;;9.32;8.52;;;;;;;26.89;100.00;95556.31;5033594;28;20209;-91
2021/05/26 09:41:15;;;;;;;7.82;7.13;;;;;;;27.10;100.00;95555.09;5033263;28;20234;-90
2021/05/26 09:43:44;;;;;;;8.52;7.72;;;;;;;26.98;100.00;95547.38;5033233;28;20289;-95
2021/05/26 09:46:32;;;;;;;8.90;7.82;;;;;;;27.26;100.00;95545.00;5033316;28;20201;-95
2021/05/26 09:49:02;;;;;;;7.90;7.30;;;;;;;27.21;100.00;95526.97;5033202;28;20233;-92
2021/05/26 09:51:30;;;;;;;8.18;7.38;;;;;;;27.27;100.00;95538.56;5033255;28;20249;-88
2021/05/26 09:54:21;;;;;;;8.13;7.43;;;;;;;27.38;100.00;95510.38;5032966;28;20202;-87
2021/05/26 09:56:51;;;;;;;7.60;7.05;;;;;;;27.50;100.00;95488.41;5032820;28;20615;-88
2021/05/26 09:59:18;;;;;;;10.52;7.07;;;;;;;27.35;100.00;95496.66;5033191;28;20647;-88
2021/05/26 10:01:45;;;;;;;10.90;7.25;;;;;;;27.25;100.00;95503.75;5032533;28;20199;-87
2021/05/26 10:04:13;;;;;;;8.88;8.27;;;;;;;27.17;100.00;95493.56;5032654;28;20200;-88
2021/05/26 10:06:42;;;;;;;8.40;7.60;;;;;;;27.72;100.00;95491.44;5032595;28;20205;-88
2021/05/26 10:09:13;;;;;;;8.80;8.00;;;;;;;27.65;100.00;95468.56;5032277;28;20194;-87
2021/05/26 10:11:41;;;;;;;8.63;7.70;;;;;;;27.66;100.00;95476.38;5032553;28;20203;-86
2021/05/26 10:14:09;;;;;;;8.25;7.53;;;;;;;27.80;100.00;95475.72;5032173;28;20202;-88
2021/05/26 10:16:40;;;;;;;8.63;7.80;;;;;;;27.70;100.00;95472.00;5032446;28;20195;-88
2021/05/26 10:19:07;;;;;;;8.68;7.43;;;;;;;27.87;100.00;95468.09;5032443;28;20211;-86
2021/05/26 10:21:37;;;;;;;8.95;8.02;;;;;;;27.90;100.00;95460.22;5033190;28;20637;-90
2021/05/26 10:24:06;;;;;;;8.13;7.35;;;;;;;27.76;100.00;95445.81;5041898;28;20253;-89
2021/05/26 10:27:01;;;;;;;10.23;9.00;;;;;;;27.97;100.00;95457.16;5034237;28;20260;-90
2021/05/26 10:29:36;;;;;;;9.73;7.75;;;;;;;28.09;100.00;95443.22;5033149;28;20278;-94
2021/05/26 10:32:05;;;;;;;8.98;8.02;;;;;;;28.01;100.00;95431.19;5033312;28;20251;-93
2021/05/26 10:35:07;;;;;;;8.30;7.55;;;;;;;27.97;100.00;95416.66;5032871;28;20286;-93
2021/05/26 10:37:38;;;;;;;8.50;7.78;;;;;;;28.02;100.00;95418.47;5032666;28;20190;-93
2021/05/26 10:40:46;;;;;;;8.60;7.85;;;;;;;28.08;100.00;95411.91;5032826;28;20561;-94
2021/05/26 10:43:39;;;;;;;9.13;8.20;;;;;;;28.25;100.00;95397.91;5029370;28;20430;-96
2021/05/26 10:46:06;;;;;;;11.75;8.27;;;;;;;27.79;100.00;95404.72;5044382;28;20212;-93
2021/05/26 10:49:03;;;;;;;8.73;7.82;;;;;;;27.85;100.00;95398.19;5039699;28;20253;-96
2021/05/26 10:52:07;;;;;;;8.02;7.25;;;;;;;27.89;100.00;95384.91;5040025;28;20202;-96
2021/05/26 10:58:18;;;;;;;9.02;7.97;;;;;;;27.72;100.00;95390.75;5147957;22;20264;-96
2021/05/26 11:00:45;;;;;;;10.20;9.18;;;;;;;27.84;100.00;95364.16;5035048;28;20179;-95
2021/05/26 11:03:43;;;;;;;8.25;7.63;;;;;;;28.01;100.00;95352.84;5032748;28;20203;-93
2021/05/26 11:06:36;;;;;;;8.82;8.23;;;;;;;28.09;100.00;95352.22;5032730;28;20201;-92
2021/05/26 11:09:06;;;;;;;8.82;8.02;;;;;;;27.97;100.00;95332.94;5032683;28;20571;-92
2021/05/26 11:11:47;;;;;;;9.05;8.00;;;;;;;28.08;100.00;95334.38;5032559;28;20203;-94
2021/05/26 11:14:30;;;;;;;12.00;9.00;;;;;;;28.06;100.00;95323.09;5032485;28;20685;-94
2021/05/26 11:17:30;;;;;;;9.40;8.57;;;;;;;27.95;100.00;95327.00;5032472;28;20201;-89
2021/05/26 11:20:21;;;;;;;9.45;8.45;;;;;;;28.02;100.00;95310.44;5032550;28;20187;-92
2021/05/26 11:22:49;;;;;;;9.25;8.45;;;;;;;27.75;100.00;95311.88;5022359;28;20199;-90
2021/05/26 11:25:17;;;;;;;8.45;7.72;;;;;;;27.64;100.00;95313.91;5034039;28;20197;-91
2021/05/26 11:27:49;;;;;;;9.10;8.30;;;;;;;28.01;100.00;95288.03;5035697;28;20705;-91
2021/05/26 11:30:22;;;;;;;9.20;8.30;;;;;;;27.93;100.00;95281.41;5035806;28;20234;-92
2021/05/26 11:32:49;;;;;;;10.73;8.23;;;;;;;28.03;100.00;95272.34;5036068;28;20194;-93
2021/05/26 11:35:16;;;;;;;8.95;8.15;;;;;;;27.96;100.00;95270.03;5035789;28;20675;-93
2021/05/26 11:37:43;;;;;;;10.23;8.25;;;;;;;28.00;100.00;95258.63;5036028;28;20194;-91
2021/05/26 11:40:30;;;;;;;9.00;8.30;;;;;;;28.28;100.00;95251.44;5035632;28;20195;-92
2021/05/26 11:42:59;;;;;;;9.85;8.13;;;;;;;27.87;100.00;95244.75;5035837;28;20183;-92
2021/05/26 11:45:27;;;;;;;9.18;8.35;;;;;;;28.28;100.00;95230.63;5035528;28;20233;-90